createdAt,value
2022-12-26T00:22:19.845Z,998
2022-12-26T00:51:40.156Z,998
2022-12-26T01:20:50.168Z,998
2022-12-26T01:50:01.558Z,998
2022-12-26T02:19:18.668Z,999
2022-12-26T02:48:29.882Z,999
2022-12-26T03:17:50.081Z,998
2022-12-26T03:47:04.805Z,998
2022-12-26T04:16:18.829Z,998
2022-12-26T04:45:28.514Z,998
2022-12-26T05:14:46.883Z,998
2022-12-26T05:44:06.791Z,998
2022-12-26T06:13:15.692Z,998
2022-12-26T06:42:26.148Z,998
2022-12-26T07:11:44.772Z,998
2022-12-26T07:40:54.346Z,999
2022-12-26T08:10:11.688Z,999
2022-12-26T08:39:17.702Z,1000
2022-12-26T09:08:38.670Z,1000
2022-12-26T09:37:54.736Z,1001
2022-12-26T10:07:10.948Z,1001
2022-12-26T10:36:31.029Z,1001
2022-12-26T11:06:09.482Z,1002
2022-12-26T11:34:41.823Z,1002
2022-12-26T12:03:51.425Z,1001
2022-12-26T12:32:43.955Z,1001
2022-12-26T13:02:21.284Z,1001
2022-12-26T13:30:51.597Z,1001
2022-12-26T14:00:13.496Z,1001
2022-12-26T14:29:20.723Z,1001
2022-12-26T14:58:32.952Z,1001
2022-12-26T15:27:58.711Z,1001
2022-12-26T15:57:22.347Z,1001
2022-12-26T16:26:50.709Z,1001
2022-12-26T16:55:53.702Z,1001
2022-12-26T17:25:10.862Z,1001
2022-12-26T17:54:36.046Z,1002
2022-12-26T18:23:54.655Z,1003
2022-12-26T18:53:16.901Z,1003
2022-12-26T19:22:32.648Z,1004
2022-12-26T19:51:50.780Z,1004
2022-12-26T20:21:11.834Z,1005
2022-12-26T20:50:31.213Z,1006
2022-12-26T21:19:49.256Z,1006
2022-12-26T21:49:09.572Z,1007
2022-12-26T22:18:16.491Z,1007
2022-12-26T22:47:22.209Z,1008
2022-12-26T23:16:33.944Z,1008
2022-12-26T23:45:45.603Z,1009
